Time;durP1;ratioP1;P1;durP2;ratioP2;P2;SDS_P1;SDS_P2;PMS_P1;PMS_P2;Temp;Humidity;BMP_temperature;BMP_pressure;BME280_temperature;BME280_humidity;BME280_pressure;Samples;Min_cycle;Max_cycle;Signal;HPM_P1;HPM_P2
2022/01/20 00:02:27;;;;;;;14.93;9.80;;;1.80;99.90;;;;;;8477678;27;20203;-66
2022/01/20 00:25:49;;;;;;;11.73;8.17;;;1.80;99.90;;;;;;8469024;27;20225;-67
2022/01/20 00:27:38;;;;;;;12.50;8.67;;;1.80;99.90;;;;;;8475677;27;20227;-67
2022/01/20 00:32:01;;;;;;;13.33;8.77;;;1.80;99.90;;;;;;8471868;28;20183;-68
2022/01/20 00:40:10;;;;;;;11.83;7.70;;;1.90;99.90;;;;;;8486204;27;20179;-67
2022/01/20 00:44:10;;;;;;;9.97;6.53;;;1.90;99.90;;;;;;8465193;28;20240;-67
2022/01/20 00:48:11;;;;;;;9.67;7.20;;;1.90;99.90;;;;;;8457351;28;20180;-67
2022/01/20 00:52:12;;;;;;;8.83;6.87;;;2.00;99.90;;;;;;8452904;28;20172;-68
2022/01/20 00:56:13;;;;;;;9.80;6.53;;;2.00;99.90;;;;;;8468975;28;20190;-68
2022/01/20 01:00:15;;;;;;;8.93;6.83;;;2.10;99.90;;;;;;8472899;28;20233;-68
2022/01/20 01:04:15;;;;;;;10.30;6.87;;;2.10;99.90;;;;;;8463589;28;20273;-66
2022/01/20 01:08:16;;;;;;;10.27;6.87;;;2.10;99.90;;;;;;8452886;28;20172;-67
2022/01/20 01:12:27;;;;;;;8.70;6.33;;;2.10;99.90;;;;;;8464089;28;20176;-67
2022/01/20 01:16:41;;;;;;;8.90;6.43;;;2.20;99.90;;;;;;8480685;27;20198;-67
2022/01/20 01:25:02;;;;;;;9.23;5.97;;;2.30;99.90;;;;;;8492092;27;20191;-67
2022/01/20 01:29:16;;;;;;;6.83;5.00;;;2.20;99.90;;;;;;8483685;27;20240;-69
2022/01/20 01:33:18;;;;;;;8.17;5.23;;;2.20;99.90;;;;;;8466749;27;20192;-67
2022/01/20 01:41:48;;;;;;;7.53;5.27;;;2.40;99.90;;;;;;8470162;27;20191;-68
2022/01/20 01:45:50;;;;;;;6.13;4.63;;;2.40;99.90;;;;;;8478681;27;20296;-67
2022/01/20 01:49:51;;;;;;;5.80;5.00;;;2.40;99.90;;;;;;8477975;27;20183;-67
2022/01/20 01:53:52;;;;;;;7.80;4.93;;;2.40;99.90;;;;;;8479401;27;20176;-67
2022/01/20 01:57:53;;;;;;;5.93;4.57;;;2.40;99.90;;;;;;8484217;27;20203;-67
2022/01/20 02:01:54;;;;;;;6.60;4.43;;;2.50;99.90;;;;;;8485513;27;20227;-70
2022/01/20 02:18:50;;;;;;;6.87;4.70;;;2.60;99.90;;;;;;8473625;27;20260;-66
2022/01/20 02:22:51;;;;;;;6.07;4.60;;;2.70;99.90;;;;;;8478818;27;20261;-67
2022/01/20 02:26:53;;;;;;;5.57;4.00;;;2.70;99.90;;;;;;8482023;27;20204;-69
2022/01/20 02:30:54;;;;;;;5.90;4.60;;;2.80;99.90;;;;;;8486870;27;20186;-67
2022/01/20 02:34:55;;;;;;;6.33;4.67;;;2.80;99.90;;;;;;8484148;27;20232;-68
2022/01/20 02:39:02;;;;;;;5.57;4.60;;;2.80;99.90;;;;;;8484353;27;20222;-68
2022/01/20 02:47:26;;;;;;;6.30;4.53;;;2.80;99.90;;;;;;8476063;27;20228;-68
2022/01/20 02:51:27;;;;;;;6.30;3.50;;;2.80;99.90;;;;;;8488985;27;20180;-68
2022/01/20 02:55:27;;;;;;;8.43;3.90;;;2.90;99.90;;;;;;8481321;27;20186;-67
2022/01/20 02:59:28;;;;;;;6.03;3.67;;;2.90;99.90;;;;;;8479726;27;20302;-71
2022/01/20 03:03:29;;;;;;;10.00;4.33;;;2.90;99.90;;;;;;8465710;27;20182;-66
2022/01/20 03:07:30;;;;;;;9.63;3.57;;;2.90;99.90;;;;;;8479180;27;20207;-65
2022/01/20 03:11:31;;;;;;;7.83;4.17;;;2.90;99.90;;;;;;8472102;27;20178;-66
2022/01/20 03:15:34;;;;;;;6.67;3.03;;;2.80;99.90;;;;;;8470154;27;20234;-66
2022/01/20 03:19:35;;;;;;;5.63;3.03;;;2.70;99.90;;;;;;8469031;27;20182;-67
2022/01/20 03:23:36;;;;;;;9.10;3.47;;;2.70;99.90;;;;;;8487512;27;20213;-68
2022/01/20 03:27:40;;;;;;;6.87;3.30;;;2.60;99.90;;;;;;8479556;27;20549;-67
2022/01/20 03:31:41;;;;;;;7.77;3.07;;;2.60;99.90;;;;;;8484641;27;20180;-69
2022/01/20 03:35:42;;;;;;;5.83;3.00;;;2.50;99.90;;;;;;8469167;27;20224;-70
2022/01/20 03:39:42;;;;;;;12.33;2.63;;;2.50;99.90;;;;;;8453079;28;20183;-67
2022/01/20 03:43:44;;;;;;;11.83;2.53;;;2.40;99.90;;;;;;8471818;27;20213;-67
2022/01/20 03:47:45;;;;;;;8.70;2.43;;;2.30;99.90;;;;;;8470318;27;20233;-68
2022/01/20 03:51:45;;;;;;;8.23;2.70;;;2.20;99.90;;;;;;8452494;28;20180;-68
2022/01/20 03:55:46;;;;;;;5.33;1.50;;;2.20;99.90;;;;;;8470887;27;20271;-66
2022/01/20 03:59:47;;;;;;;5.23;1.80;;;2.30;99.90;;;;;;8470001;27;20183;-67
2022/01/20 04:03:48;;;;;;;7.23;1.73;;;2.20;99.90;;;;;;8452024;28;20188;-67
2022/01/20 04:07:49;;;;;;;11.13;1.97;;;2.20;99.90;;;;;;8475306;27;20252;-67
2022/01/20 04:11:51;;;;;;;7.30;1.80;;;2.20;99.90;;;;;;8484041;27;20183;-68
2022/01/20 04:15:53;;;;;;;9.50;1.57;;;2.20;99.90;;;;;;8485868;27;20194;-67
2022/01/20 04:19:54;;;;;;;12.50;1.90;;;2.10;99.90;;;;;;8483746;27;20278;-66
2022/01/20 04:23:58;;;;;;;10.57;1.83;;;2.10;99.90;;;;;;8476724;27;20182;-71
2022/01/20 04:27:59;;;;;;;5.97;2.77;;;2.10;99.90;;;;;;8488238;27;20203;-66
2022/01/20 04:32:00;;;;;;;7.87;1.50;;;2.10;99.90;;;;;;8469687;27;20220;-69
2022/01/20 04:36:01;;;;;;;7.07;1.77;;;2.10;99.90;;;;;;8486284;27;20526;-66
2022/01/20 04:40:03;;;;;;;4.87;2.33;;;2.10;99.90;;;;;;8487914;27;20171;-68
2022/01/20 04:44:11;;;;;;;5.27;1.40;;;2.20;99.90;;;;;;8478235;28;20217;-66
2022/01/20 04:48:29;;;;;;;7.27;1.57;;;2.20;99.90;;;;;;8472256;28;20207;-68
2022/01/20 05:01:03;;;;;;;4.37;1.83;;;2.00;99.90;;;;;;8486850;27;20231;-67
2022/01/20 05:05:07;;;;;;;8.47;1.50;;;1.80;99.90;;;;;;8492083;27;20211;-67
2022/01/20 05:09:10;;;;;;;3.00;1.17;;;1.70;99.90;;;;;;8492439;27;20208;-67
2022/01/20 05:13:22;;;;;;;5.57;1.37;;;1.60;99.90;;;;;;8474603;27;20194;-67
2022/01/20 05:17:22;;;;;;;6.17;1.40;;;1.50;99.90;;;;;;8471159;27;20204;-65
2022/01/20 05:21:23;;;;;;;8.13;1.87;;;1.50;99.90;;;;;;8461477;27;20417;-67
2022/01/20 05:25:24;;;;;;;6.93;1.57;;;1.40;99.90;;;;;;8484291;27;20206;-66
2022/01/20 05:29:25;;;;;;;7.47;1.83;;;1.30;99.90;;;;;;8484450;27;20186;-66
2022/01/20 05:33:27;;;;;;;6.23;1.50;;;1.30;99.90;;;;;;8483151;27;20186;-66
2022/01/20 05:37:27;;;;;;;8.17;1.70;;;1.20;99.90;;;;;;8491685;27;20263;-66
2022/01/20 05:41:28;;;;;;;11.33;1.73;;;1.10;99.90;;;;;;8487494;27;20183;-67
2022/01/20 05:45:29;;;;;;;7.23;1.97;;;1.00;99.90;;;;;;8491352;27;20211;-67
2022/01/20 05:49:30;;;;;;;7.80;1.80;;;1.10;99.90;;;;;;8490967;27;20196;-66
2022/01/20 05:53:36;;;;;;;5.63;1.40;;;1.10;99.90;;;;;;8473927;27;20266;-65
2022/01/20 05:57:38;;;;;;;7.10;1.53;;;1.10;99.90;;;;;;8487580;27;20207;-66
2022/01/20 06:01:39;;;;;;;14.73;2.37;;;0.90;99.90;;;;;;8475659;27;20194;-66
2022/01/20 06:05:41;;;;;;;5.37;1.70;;;1.00;99.90;;;;;;8490211;27;20516;-67
2022/01/20 06:09:42;;;;;;;8.93;1.90;;;1.10;99.90;;;;;;8490797;27;20258;-65
2022/01/20 06:13:43;;;;;;;9.60;1.93;;;1.10;99.90;;;;;;8475203;27;20184;-66
2022/01/20 06:17:43;;;;;;;8.33;2.07;;;1.20;99.90;;;;;;8481368;27;20249;-65
2022/01/20 06:21:45;;;;;;;9.53;1.90;;;1.30;99.90;;;;;;8476570;27;20206;-65
2022/01/20 06:25:46;;;;;;;12.57;2.50;;;1.40;99.90;;;;;;8485018;27;20234;-64
2022/01/20 06:29:47;;;;;;;15.33;2.90;;;1.50;99.90;;;;;;8463131;27;20187;-67
2022/01/20 06:33:48;;;;;;;7.57;2.17;;;1.70;99.90;;;;;;8482443;27;20219;-67
2022/01/20 06:37:49;;;;;;;15.40;2.63;;;1.80;99.90;;;;;;8480001;27;20179;-65
2022/01/20 06:41:50;;;;;;;12.47;2.17;;;1.80;99.90;;;;;;8483098;27;20187;-68
2022/01/20 06:45:51;;;;;;;8.90;2.03;;;1.80;99.90;;;;;;8470551;27;20206;-66
2022/01/20 06:49:51;;;;;;;8.33;1.60;;;1.80;99.90;;;;;;8458533;27;20176;-67
2022/01/20 06:53:52;;;;;;;13.90;2.00;;;1.90;99.90;;;;;;8479721;27;20186;-66
2022/01/20 06:57:53;;;;;;;10.57;2.03;;;1.90;99.90;;;;;;8476438;27;20523;-66
2022/01/20 07:01:54;;;;;;;7.80;2.17;;;1.80;99.90;;;;;;8477448;27;20191;-67
2022/01/20 07:05:55;;;;;;;5.97;1.93;;;1.80;99.90;;;;;;8471684;27;20266;-70
2022/01/20 07:09:55;;;;;;;8.33;2.17;;;1.90;99.90;;;;;;8488150;27;20181;-68
2022/01/20 07:13:56;;;;;;;6.50;1.77;;;1.90;99.90;;;;;;8467282;27;20345;-68
2022/01/20 07:17:57;;;;;;;7.97;1.93;;;1.80;99.90;;;;;;8479752;27;20210;-68
2022/01/20 07:21:58;;;;;;;10.07;2.20;;;1.80;99.90;;;;;;8474936;27;20232;-68
2022/01/20 07:25:59;;;;;;;6.33;1.47;;;1.50;99.90;;;;;;8465434;27;20203;-68
2022/01/20 07:30:00;;;;;;;4.23;1.70;;;1.30;99.90;;;;;;8474020;27;20208;-68
2022/01/20 07:34:01;;;;;;;5.90;1.30;;;1.00;99.90;;;;;;8471628;27;20198;-68
2022/01/20 07:38:04;;;;;;;1.83;0.90;;;0.70;99.90;;;;;;8482344;27;20184;-71
2022/01/20 07:42:05;;;;;;;3.33;0.83;;;0.50;99.90;;;;;;8480606;27;20218;-70
2022/01/20 07:46:06;;;;;;;1.37;0.50;;;0.40;99.90;;;;;;8476028;27;20209;-69
2022/01/20 07:50:07;;;;;;;1.27;0.70;;;0.60;99.90;;;;;;8478969;27;20193;-71
2022/01/20 07:54:08;;;;;;;2.27;0.80;;;0.50;99.90;;;;;;8452934;28;20191;-71
2022/01/20 07:58:09;;;;;;;1.57;0.97;;;0.50;99.90;;;;;;8467487;27;20199;-69
2022/01/20 08:02:10;;;;;;;1.83;0.70;;;0.50;99.90;;;;;;8477477;27;20187;-69
2022/01/20 08:06:10;;;;;;;1.53;0.93;;;0.60;99.90;;;;;;8474902;27;20217;-70
2022/01/20 08:10:12;;;;;;;2.90;1.13;;;0.60;99.90;;;;;;8463629;27;20178;-70
2022/01/20 08:14:13;;;;;;;2.93;0.77;;;0.50;99.90;;;;;;8472475;27;20239;-71
2022/01/20 08:18:14;;;;;;;2.00;0.90;;;0.50;99.90;;;;;;8475352;27;20216;-71
2022/01/20 08:22:15;;;;;;;7.03;1.00;;;0.40;99.90;;;;;;8470892;27;20194;-70
2022/01/20 08:26:16;;;;;;;5.77;1.13;;;0.40;99.90;;;;;;8486765;27;20460;-70
2022/01/20 08:30:19;;;;;;;4.93;1.10;;;0.30;99.90;;;;;;8469684;27;20182;-69
2022/01/20 08:34:20;;;;;;;3.80;0.93;;;0.30;99.90;;;;;;8477457;28;20185;-69
2022/01/20 08:38:21;;;;;;;3.73;1.43;;;0.20;99.90;;;;;;8486203;28;20189;-69
2022/01/20 08:42:24;;;;;;;2.17;1.07;;;0.20;99.90;;;;;;8483697;28;20267;-69
2022/01/20 08:46:25;;;;;;;7.77;1.87;;;0.30;99.90;;;;;;8476527;28;20292;-69
2022/01/20 08:50:28;;;;;;;2.50;1.00;;;0.20;99.90;;;;;;8486131;27;20212;-68
2022/01/20 08:54:29;;;;;;;5.30;1.83;;;-0.30;99.90;;;;;;8485288;27;20250;-67
2022/01/20 08:58:33;;;;;;;4.80;1.37;;;-0.50;99.90;;;;;;8483058;27;20196;-68
2022/01/20 09:02:34;;;;;;;3.77;1.33;;;-0.80;99.90;;;;;;8470117;28;20276;-68
2022/01/20 09:06:37;;;;;;;3.93;1.53;;;-1.00;99.90;;;;;;8474589;27;20211;-68
2022/01/20 09:10:42;;;;;;;7.90;1.10;;;-1.00;99.90;;;;;;8486020;28;20176;-70
2022/01/20 09:19:05;;;;;;;3.23;0.70;;;-0.40;99.90;;;;;;8466458;28;20190;-74
2022/01/20 09:23:06;;;;;;;4.53;1.50;;;-0.40;99.90;;;;;;8477019;27;20266;-69
2022/01/20 09:27:07;;;;;;;3.23;1.30;;;-0.60;99.90;;;;;;8459980;28;20213;-69
2022/01/20 09:31:09;;;;;;;1.77;1.20;;;-0.50;99.90;;;;;;8473389;28;20287;-69
2022/01/20 09:35:10;;;;;;;5.13;1.20;;;-0.50;99.90;;;;;;8476254;28;20485;-68
2022/01/20 09:39:12;;;;;;;4.73;1.40;;;-0.30;99.90;;;;;;8489672;27;20223;-69
2022/01/20 09:43:16;;;;;;;3.53;1.23;;;-0.30;99.90;;;;;;8469156;27;20173;-70
2022/01/20 09:47:18;;;;;;;3.87;1.00;;;-0.40;99.90;;;;;;8467615;27;20223;-69
2022/01/20 09:51:18;;;;;;;3.60;0.73;;;-0.40;99.90;;;;;;8467609;27;20173;-69
2022/01/20 09:55:20;;;;;;;2.30;0.93;;;-0.40;1.00;;;;;;8483984;27;20196;-69
2022/01/20 09:59:20;;;;;;;3.67;1.37;;;-0.30;1.00;;;;;;8486999;27;20192;-69
2022/01/20 10:03:24;;;;;;;3.33;1.20;;;-0.30;99.90;;;;;;8475778;27;20187;-69
2022/01/20 10:07:32;;;;;;;3.37;1.03;;;-0.20;99.90;;;;;;8465268;27;20276;-67
2022/01/20 10:11:32;;;;;;;4.90;1.40;;;-0.20;99.90;;;;;;8469013;27;20182;-68
2022/01/20 10:15:34;;;;;;;5.53;1.67;;;0.00;13.60;;;;;;8476080;27;20257;-68
2022/01/20 10:19:40;;;;;;;5.13;1.67;;;0.00;99.90;;;;;;8482697;27;20183;-69
2022/01/20 10:23:47;;;;;;;6.67;1.30;;;0.10;99.90;;;;;;8477861;27;20186;-70
2022/01/20 10:27:51;;;;;;;6.33;1.10;;;0.20;99.90;;;;;;8473800;27;20224;-69
2022/01/20 10:31:52;;;;;;;3.37;0.97;;;0.30;93.20;;;;;;8489162;27;20688;-69
2022/01/20 10:35:53;;;;;;;3.00;1.60;;;0.30;99.90;;;;;;8487040;27;20242;-68
2022/01/20 10:40:11;;;;;;;2.97;1.03;;;0.40;39.00;;;;;;8455360;28;20270;-68
2022/01/20 10:44:16;;;;;;;6.47;1.53;;;0.60;99.90;;;;;;8470315;27;20347;-68
2022/01/20 10:48:19;;;;;;;9.73;1.33;;;0.80;1.00;;;;;;8459822;28;20205;-70
2022/01/20 10:52:23;;;;;;;6.83;1.53;;;0.90;99.90;;;;;;8490380;27;20240;-72
2022/01/20 10:56:24;;;;;;;4.50;0.93;;;0.90;99.90;;;;;;8484662;27;20193;-69
2022/01/20 11:00:26;;;;;;;4.00;1.47;;;0.90;99.90;;;;;;8470372;27;20183;-68
2022/01/20 11:04:27;;;;;;;5.90;1.30;;;1.00;1.00;;;;;;8457443;27;20259;-69
2022/01/20 11:08:29;;;;;;;4.63;1.30;;;1.00;99.90;;;;;;8475718;27;20211;-68
2022/01/20 11:12:30;;;;;;;4.50;1.63;;;0.90;1.00;;;;;;8474113;27;20176;-70
2022/01/20 11:16:38;;;;;;;7.93;1.83;;;0.90;1.00;;;;;;8478529;27;20198;-69
2022/01/20 11:20:45;;;;;;;6.30;1.50;;;1.00;1.00;;;;;;8476561;27;20270;-67
2022/01/20 11:25:00;;;;;;;7.30;1.60;;;1.00;99.90;;;;;;8468230;27;20440;-69
2022/01/20 11:29:01;;;;;;;4.37;1.10;;;1.10;1.00;;;;;;8471700;27;20179;-69
2022/01/20 11:33:15;;;;;;;7.57;1.50;;;1.00;1.00;;;;;;8466627;27;20180;-68
2022/01/20 11:37:16;;;;;;;6.30;1.70;;;1.00;1.00;;;;;;8467050;27;20172;-70
2022/01/20 11:41:17;;;;;;;3.00;1.40;;;1.10;1.00;;;;;;8468003;27;20179;-69
2022/01/20 11:45:51;;;;;;;5.33;1.27;;;1.20;99.90;;;;;;8474156;27;20211;-71
2022/01/20 11:49:51;;;;;;;2.67;1.03;;;1.30;1.00;;;;;;8474758;27;20186;-68
2022/01/20 11:54:01;;;;;;;6.93;1.30;;;1.30;1.00;;;;;;8465394;27;20193;-67
2022/01/20 11:58:10;;;;;;;2.27;0.83;;;1.30;99.90;;;;;;8486330;27;20222;-69
2022/01/20 12:02:27;;;;;;;5.77;1.87;;;1.30;99.90;;;;;;8467005;27;20345;-67
2022/01/20 12:06:38;;;;;;;4.97;1.27;;;1.20;1.00;;;;;;8453525;28;20203;-68
2022/01/20 12:10:41;;;;;;;6.80;1.40;;;1.20;1.00;;;;;;8458169;27;20252;-71
2022/01/20 12:14:42;;;;;;;6.27;1.27;;;1.30;1.00;;;;;;8476535;27;20172;-70
2022/01/20 12:18:55;;;;;;;7.33;1.13;;;1.30;1.00;;;;;;8476216;27;20279;-68
2022/01/20 12:22:57;;;;;;;2.87;1.00;;;1.40;99.90;;;;;;8481110;27;20203;-67
2022/01/20 12:26:58;;;;;;;6.23;1.40;;;1.50;1.00;;;;;;8483251;27;20211;-70
2022/01/20 12:31:02;;;;;;;5.40;1.40;;;1.60;19.10;;;;;;8471382;27;20176;-69
2022/01/20 12:35:04;;;;;;;3.60;1.30;;;1.70;1.00;;;;;;8485864;27;20186;-68
2022/01/20 12:39:06;;;;;;;6.57;1.17;;;1.60;1.00;;;;;;8486712;27;20183;-70
2022/01/20 12:43:07;;;;;;;2.97;0.73;;;1.60;1.00;;;;;;8475017;28;20171;-68
2022/01/20 12:47:08;;;;;;;5.77;1.30;;;1.70;1.00;;;;;;8477100;28;20216;-69
2022/01/20 12:51:10;;;;;;;5.13;1.30;;;1.60;99.90;;;;;;8474402;28;20180;-69
2022/01/20 12:55:10;;;;;;;5.83;1.60;;;1.50;1.00;;;;;;8483135;28;20207;-68
2022/01/20 12:59:20;;;;;;;7.73;1.77;;;1.60;1.00;;;;;;8467094;28;20199;-68
2022/01/20 13:03:20;;;;;;;3.33;1.37;;;1.60;99.90;;;;;;8469732;28;20179;-69
2022/01/20 13:07:21;;;;;;;8.23;1.53;;;1.60;1.00;;;;;;8486918;27;20211;-69
2022/01/20 13:11:29;;;;;;;6.30;1.47;;;1.50;99.90;;;;;;8489178;27;20186;-69
2022/01/20 13:15:31;;;;;;;6.90;1.87;;;1.50;99.90;;;;;;8475770;27;20259;-69
2022/01/20 13:19:45;;;;;;;8.13;1.83;;;1.50;61.50;;;;;;8478964;27;20217;-68
2022/01/20 13:23:54;;;;;;;8.43;1.40;;;1.40;60.50;;;;;;8492035;27;20183;-69
2022/01/20 13:28:07;;;;;;;4.90;1.23;;;1.40;1.00;;;;;;8493760;27;20207;-70
2022/01/20 13:32:08;;;;;;;4.97;1.40;;;1.40;99.90;;;;;;8469173;27;20196;-69
2022/01/20 13:36:10;;;;;;;9.13;2.43;;;1.30;1.00;;;;;;8457297;28;20183;-68
2022/01/20 13:40:11;;;;;;;4.80;1.37;;;1.20;1.00;;;;;;8458196;28;20176;-67
2022/01/20 13:48:33;;;;;;;9.23;1.30;;;1.00;99.90;;;;;;8470722;27;20206;-68
2022/01/20 13:52:38;;;;;;;4.20;1.40;;;0.80;99.90;;;;;;8456371;28;20180;-67
2022/01/20 13:56:52;;;;;;;6.37;1.63;;;0.80;99.90;;;;;;8484613;27;20199;-69
2022/01/20 14:00:54;;;;;;;6.37;2.80;;;0.70;1.00;;;;;;8466302;27;20175;-69
2022/01/20 14:04:55;;;;;;;6.23;1.20;;;0.50;99.90;;;;;;8472275;27;20236;-69
2022/01/20 14:08:56;;;;;;;6.90;1.53;;;0.40;99.90;;;;;;8477043;27;20267;-68
2022/01/20 14:12:58;;;;;;;7.73;1.23;;;0.30;99.90;;;;;;8483167;27;20724;-69
2022/01/20 14:17:06;;;;;;;5.27;1.40;;;0.30;99.90;;;;;;8480698;27;20238;-68
2022/01/20 14:21:11;;;;;;;5.43;1.53;;;0.20;99.90;;;;;;8475263;27;20179;-69
2022/01/20 14:25:12;;;;;;;5.63;1.13;;;0.20;1.00;;;;;;8467282;27;20269;-68
2022/01/20 14:29:13;;;;;;;8.77;1.87;;;0.10;99.90;;;;;;8465630;27;20202;-70
2022/01/20 14:33:14;;;;;;;6.00;1.33;;;0.10;99.90;;;;;;8465673;27;20168;-69
2022/01/20 14:37:16;;;;;;;6.90;1.13;;;0.00;1.00;;;;;;8457048;28;20172;-68
2022/01/20 14:41:16;;;;;;;9.33;1.57;;;0.10;1.00;;;;;;8464536;27;20178;-68
2022/01/20 14:45:20;;;;;;;4.73;1.50;;;0.10;1.00;;;;;;8473366;27;20322;-69
2022/01/20 14:49:21;;;;;;;7.97;1.93;;;0.00;99.90;;;;;;8455143;28;20175;-69
2022/01/20 14:53:22;;;;;;;5.97;1.50;;;0.10;1.00;;;;;;8479617;27;20228;-67
2022/01/20 14:57:24;;;;;;;8.53;1.60;;;0.00;99.90;;;;;;8487767;27;20191;-69
2022/01/20 15:01:25;;;;;;;7.10;1.40;;;0.10;1.00;;;;;;8479747;27;20180;-68
2022/01/20 15:05:26;;;;;;;5.13;1.40;;;0.00;1.00;;;;;;8487327;27;20219;-69
2022/01/20 15:09:29;;;;;;;4.87;1.20;;;-0.10;1.00;;;;;;8488513;27;20205;-69
2022/01/20 15:13:30;;;;;;;5.53;1.43;;;-0.30;1.00;;;;;;8472118;27;20178;-68
2022/01/20 15:17:31;;;;;;;5.13;1.40;;;-0.30;99.90;;;;;;8485281;27;20283;-69
2022/01/20 15:21:32;;;;;;;7.27;1.43;;;-0.20;99.90;;;;;;8477450;27;20189;-68
2022/01/20 15:25:33;;;;;;;6.93;1.60;;;0.00;99.90;;;;;;8472805;27;20205;-68
2022/01/20 15:29:34;;;;;;;6.50;1.50;;;0.10;99.90;;;;;;8467622;27;20188;-74
2022/01/20 15:33:34;;;;;;;4.70;1.40;;;0.10;99.90;;;;;;8478080;27;20216;-68
2022/01/20 15:37:36;;;;;;;6.13;1.30;;;0.00;1.00;;;;;;8465747;27;20186;-69
2022/01/20 15:41:39;;;;;;;5.37;1.37;;;-0.10;89.60;;;;;;8480099;27;20179;-68
2022/01/20 15:45:40;;;;;;;4.83;1.53;;;-0.20;90.50;;;;;;8473559;27;20487;-69
2022/01/20 15:49:40;;;;;;;6.13;0.90;;;-0.30;99.90;;;;;;8479603;27;20189;-69
2022/01/20 15:53:41;;;;;;;4.03;1.27;;;-0.30;99.90;;;;;;8478312;27;20175;-68
2022/01/20 15:57:42;;;;;;;2.97;0.90;;;-0.30;1.00;;;;;;8485086;27;20197;-69
2022/01/20 16:01:43;;;;;;;7.93;1.37;;;-0.30;99.90;;;;;;8476708;27;20243;-69
2022/01/20 16:05:44;;;;;;;7.47;1.40;;;-0.30;99.90;;;;;;8460696;27;20213;-69
2022/01/20 16:09:44;;;;;;;8.90;1.50;;;-0.20;1.00;;;;;;8471822;27;20172;-70
2022/01/20 16:13:47;;;;;;;5.60;1.80;;;-0.30;1.00;;;;;;8463256;27;20660;-68
2022/01/20 16:17:47;;;;;;;5.10;1.30;;;-0.30;99.90;;;;;;8473892;27;20227;-69
2022/01/20 16:21:50;;;;;;;6.93;1.50;;;-0.30;1.00;;;;;;8465910;27;20181;-69
2022/01/20 16:25:51;;;;;;;7.37;1.50;;;-0.20;1.00;;;;;;8485265;27;20554;-69
2022/01/20 16:29:52;;;;;;;6.23;1.33;;;-0.30;1.00;;;;;;8482890;27;20178;-69
2022/01/20 16:33:54;;;;;;;8.17;1.27;;;-0.30;1.00;;;;;;8477949;27;20312;-68
2022/01/20 16:37:56;;;;;;;4.13;1.10;;;-0.30;99.90;;;;;;8487493;27;20183;-69
2022/01/20 16:41:57;;;;;;;4.63;1.60;;;-0.30;1.00;;;;;;8482489;27;20268;-68
2022/01/20 16:45:58;;;;;;;6.93;1.17;;;-0.40;99.90;;;;;;8470372;27;20195;-69
2022/01/20 16:49:59;;;;;;;5.63;1.90;;;-0.40;99.90;;;;;;8479884;27;20174;-69
2022/01/20 16:54:00;;;;;;;6.87;1.40;;;-0.20;12.40;;;;;;8472850;27;20178;-69
2022/01/20 16:58:01;;;;;;;10.10;2.67;;;-0.20;17.70;;;;;;8481736;27;20674;-69
2022/01/20 17:02:02;;;;;;;9.13;1.60;;;-0.30;1.00;;;;;;8476516;27;20181;-68
2022/01/20 17:06:05;;;;;;;12.77;1.93;;;-0.30;99.90;;;;;;8474903;27;20214;-69
2022/01/20 17:10:06;;;;;;;9.37;3.47;;;-0.20;99.90;;;;;;8478836;27;20177;-68
2022/01/20 17:14:07;;;;;;;5.23;2.10;;;-0.40;1.00;;;;;;8468847;27;20173;-69
2022/01/20 17:18:08;;;;;;;7.90;2.40;;;-0.30;99.90;;;;;;8479201;27;20198;-68
2022/01/20 17:22:09;;;;;;;7.10;2.30;;;-0.30;1.00;;;;;;8467097;27;20190;-69
2022/01/20 17:26:10;;;;;;;5.17;1.37;;;-0.40;1.00;;;;;;8487989;27;20212;-71
2022/01/20 17:30:12;;;;;;;4.60;1.03;;;-0.60;1.00;;;;;;8467135;27;20233;-69
2022/01/20 17:34:12;;;;;;;4.33;1.70;;;-0.80;99.90;;;;;;8481163;27;20206;-69
2022/01/20 17:38:13;;;;;;;5.90;1.60;;;-0.80;99.90;;;;;;8492611;27;20195;-70
2022/01/20 17:42:14;;;;;;;8.60;1.70;;;-0.90;1.00;;;;;;8470581;27;20273;-69
2022/01/20 17:46:15;;;;;;;3.40;1.03;;;-1.00;1.00;;;;;;8483774;27;20506;-70
2022/01/20 17:50:17;;;;;;;6.87;1.33;;;-0.90;99.90;;;;;;8490611;27;20173;-69
2022/01/20 17:54:18;;;;;;;6.40;1.40;;;-0.90;99.90;;;;;;8492140;27;20182;-69
2022/01/20 17:58:19;;;;;;;4.37;1.37;;;-0.80;99.90;;;;;;8486538;27;20197;-69
2022/01/20 18:02:20;;;;;;;8.50;1.83;;;-0.80;99.90;;;;;;8486836;27;20702;-71
2022/01/20 18:06:21;;;;;;;4.73;1.33;;;-0.80;99.90;;;;;;8474171;27;20210;-70
2022/01/20 18:10:22;;;;;;;7.30;1.67;;;-0.70;99.90;;;;;;8470058;27;20175;-70
2022/01/20 18:14:22;;;;;;;4.20;1.73;;;-0.70;1.00;;;;;;8464332;27;20183;-70
2022/01/20 18:18:28;;;;;;;3.83;1.60;;;-0.70;1.00;;;;;;8472059;27;20209;-70
2022/01/20 18:22:29;;;;;;;5.20;1.70;;;-0.60;1.00;;;;;;8467395;27;20171;-70
2022/01/20 18:26:30;;;;;;;8.07;1.90;;;-0.60;1.00;;;;;;8483971;27;20258;-70
2022/01/20 18:30:31;;;;;;;4.93;1.67;;;-0.60;99.90;;;;;;8465873;27;20179;-70
2022/01/20 18:34:32;;;;;;;11.00;1.50;;;-0.60;99.90;;;;;;8483393;27;20204;-69
2022/01/20 18:38:33;;;;;;;8.10;1.70;;;-0.70;99.90;;;;;;8479371;27;20298;-69
2022/01/20 18:42:34;;;;;;;5.30;1.83;;;-0.70;99.90;;;;;;8476566;27;20197;-69
2022/01/20 18:46:35;;;;;;;7.27;1.60;;;-0.80;99.90;;;;;;8480526;27;20210;-75
2022/01/20 18:50:36;;;;;;;7.57;1.70;;;-0.80;99.90;;;;;;8484929;27;20178;-70
2022/01/20 18:54:37;;;;;;;6.00;1.50;;;-0.70;99.90;;;;;;8479478;27;20219;-70
2022/01/20 18:58:41;;;;;;;3.50;1.33;;;-0.70;83.10;;;;;;8487989;27;20225;-70
2022/01/20 19:02:42;;;;;;;3.00;1.40;;;-0.70;99.90;;;;;;8476373;27;20185;-70
2022/01/20 19:06:43;;;;;;;6.00;1.67;;;-0.70;21.50;;;;;;8477577;27;20205;-69
2022/01/20 19:10:43;;;;;;;3.77;1.50;;;-0.60;1.00;;;;;;8487628;27;20199;-69
2022/01/20 19:14:45;;;;;;;5.07;1.57;;;-0.60;99.90;;;;;;8473630;27;20555;-69
2022/01/20 19:18:46;;;;;;;2.73;1.53;;;-0.60;1.00;;;;;;8486908;27;20234;-69
2022/01/20 19:22:47;;;;;;;10.60;1.73;;;-0.70;1.00;;;;;;8457677;27;20212;-70
2022/01/20 19:26:49;;;;;;;5.53;1.37;;;-0.70;1.00;;;;;;8456224;27;20523;-70
2022/01/20 19:30:51;;;;;;;1.67;1.20;;;-0.70;1.00;;;;;;8480175;27;20189;-70
2022/01/20 19:34:52;;;;;;;7.87;1.60;;;-0.70;1.00;;;;;;8456530;27;20174;-69
2022/01/20 19:38:54;;;;;;;3.17;1.30;;;-0.70;79.00;;;;;;8454096;28;20211;-70
2022/01/20 19:42:55;;;;;;;6.30;1.50;;;-0.70;99.90;;;;;;8467492;27;20206;-70
2022/01/20 19:46:56;;;;;;;6.93;1.60;;;-0.80;99.90;;;;;;8470027;27;20205;-70
2022/01/20 19:50:58;;;;;;;4.73;1.60;;;-0.70;99.90;;;;;;8454566;28;20174;-69
2022/01/20 19:55:01;;;;;;;4.23;1.40;;;-0.70;99.90;;;;;;8457835;27;20177;-70
2022/01/20 19:59:03;;;;;;;4.50;1.57;;;-0.70;99.90;;;;;;8479061;27;20190;-70
2022/01/20 20:03:11;;;;;;;5.80;2.10;;;-0.70;49.50;;;;;;8480942;27;20177;-70
2022/01/20 20:07:12;;;;;;;4.03;2.13;;;-0.70;99.90;;;;;;8478373;27;20535;-70
2022/01/20 20:11:14;;;;;;;7.57;1.57;;;-0.70;99.90;;;;;;8483186;27;20208;-71
2022/01/20 20:15:16;;;;;;;5.37;2.10;;;-0.70;99.90;;;;;;8478762;27;20173;-71
2022/01/20 20:19:18;;;;;;;5.73;1.70;;;-0.70;99.90;;;;;;8477017;27;20331;-70
2022/01/20 20:23:19;;;;;;;8.67;2.67;;;-0.60;1.00;;;;;;8470118;27;20169;-70
2022/01/20 20:27:21;;;;;;;4.73;2.00;;;-0.60;39.50;;;;;;8470001;27;20212;-70
2022/01/20 20:31:22;;;;;;;4.47;2.40;;;-0.70;99.90;;;;;;8444684;28;20200;-70
2022/01/20 20:35:24;;;;;;;6.50;1.67;;;-0.80;1.00;;;;;;8467257;27;20190;-70
2022/01/20 20:39:28;;;;;;;8.47;2.43;;;-0.90;25.60;;;;;;8472297;27;20193;-70
2022/01/20 20:43:29;;;;;;;10.30;3.20;;;-1.00;99.90;;;;;;8456685;28;20203;-70
2022/01/20 20:47:30;;;;;;;5.87;2.50;;;-1.00;99.90;;;;;;8473568;28;20223;-70
2022/01/20 20:51:31;;;;;;;4.40;1.63;;;-1.10;99.90;;;;;;8466176;28;20185;-70
2022/01/20 20:55:33;;;;;;;6.23;2.43;;;-1.10;99.90;;;;;;8457873;28;20183;-70
2022/01/20 20:59:34;;;;;;;4.03;2.40;;;-1.10;99.90;;;;;;8485006;28;20200;-71
2022/01/20 21:03:36;;;;;;;6.30;1.73;;;-1.10;26.50;;;;;;8465227;27;20184;-70
2022/01/20 21:07:37;;;;;;;4.70;1.53;;;-1.10;23.40;;;;;;8483365;27;20210;-70
2022/01/20 21:11:38;;;;;;;6.70;1.97;;;-1.10;1.00;;;;;;8476086;28;20172;-70
2022/01/20 21:15:39;;;;;;;3.83;1.80;;;-1.10;1.00;;;;;;8483052;27;20203;-70
2022/01/20 21:19:42;;;;;;;9.67;2.30;;;-1.20;1.00;;;;;;8474172;28;20188;-70
2022/01/20 21:23:44;;;;;;;6.13;1.97;;;-1.20;14.20;;;;;;8474045;28;20176;-70
2022/01/20 21:27:45;;;;;;;5.00;2.07;;;-1.30;4.70;;;;;;8481594;28;20237;-70
2022/01/20 21:31:46;;;;;;;3.80;1.60;;;-1.30;1.00;;;;;;8478340;28;20184;-70
2022/01/20 21:35:47;;;;;;;5.97;2.40;;;-1.30;7.20;;;;;;8490477;27;20183;-70
2022/01/20 21:39:49;;;;;;;6.67;1.80;;;-1.30;1.00;;;;;;8483020;27;20176;-70
2022/01/20 21:43:50;;;;;;;2.47;1.17;;;-1.30;1.00;;;;;;8479273;27;20206;-70
2022/01/20 21:47:50;;;;;;;7.53;1.97;;;-1.20;99.90;;;;;;8467468;27;20207;-70
2022/01/20 21:51:52;;;;;;;6.30;1.50;;;-1.30;99.90;;;;;;8487762;27;20226;-70
2022/01/20 21:55:53;;;;;;;5.13;1.73;;;-1.30;99.90;;;;;;8490708;27;20193;-70
2022/01/20 21:59:54;;;;;;;4.40;2.30;;;-1.30;99.90;;;;;;8484487;27;20186;-70
2022/01/20 22:03:55;;;;;;;6.17;1.70;;;-1.30;1.00;;;;;;8466398;27;20616;-70
2022/01/20 22:07:58;;;;;;;6.47;1.63;;;-1.40;99.90;;;;;;8488451;27;20200;-70
2022/01/20 22:11:58;;;;;;;3.77;2.10;;;-1.50;99.90;;;;;;8471013;27;20184;-70
2022/01/20 22:16:00;;;;;;;5.13;1.83;;;-1.50;99.90;;;;;;8478763;27;20207;-70
2022/01/20 22:20:01;;;;;;;9.67;1.50;;;-1.50;1.00;;;;;;8466526;27;20179;-69